createdAt,value
2018-11-25T00:01:10.920Z,8.45
2018-11-25T00:03:40.718Z,8.42
2018-11-25T00:06:10.950Z,8.31
2018-11-25T00:08:40.756Z,8.39
2018-11-25T00:11:10.552Z,8.44
2018-11-25T00:13:40.484Z,8.26
2018-11-25T00:16:10.275Z,8.30
2018-11-25T00:18:40.164Z,8.18
2018-11-25T00:21:10.083Z,8.14
2018-11-25T00:23:39.963Z,8.10
2018-11-25T00:26:09.795Z,8.14
2018-11-25T00:28:39.636Z,7.91
2018-11-25T00:31:09.834Z,7.54
2018-11-25T00:33:39.324Z,7.64
2018-11-25T00:36:09.163Z,7.89
2018-11-25T00:38:39.125Z,7.72
2018-11-25T00:41:08.935Z,7.91
2018-11-25T00:43:38.726Z,7.99
2018-11-25T00:46:08.507Z,7.78
2018-11-25T00:48:38.271Z,7.66
2018-11-25T00:51:08.246Z,7.46
2018-11-25T00:53:37.798Z,7.53
2018-11-25T00:56:08.074Z,7.63
2018-11-25T00:58:37.797Z,7.73
2018-11-25T01:01:07.708Z,7.97
2018-11-25T01:03:37.440Z,4.88
2018-11-25T01:06:07.552Z,8.09
2018-11-25T01:08:37.520Z,8.02
2018-11-25T01:11:07.398Z,8.14
2018-11-25T01:13:37.219Z,8.18
2018-11-25T01:16:07.127Z,8.07
2018-11-25T01:18:36.896Z,8.12
2018-11-25T01:21:07.144Z,8.13
2018-11-25T01:23:36.869Z,8.15
2018-11-25T01:26:07.090Z,8.25
2018-11-25T01:28:36.903Z,7.45
2018-11-25T01:31:06.719Z,7.43
2018-11-25T01:33:36.416Z,7.80
2018-11-25T01:36:06.431Z,7.96
2018-11-25T01:38:36.355Z,8.05
2018-11-25T01:41:06.263Z,8.06
2018-11-25T01:43:36.056Z,7.61
2018-11-25T01:46:05.995Z,7.90
2018-11-25T01:48:35.836Z,8.01
2018-11-25T01:51:05.640Z,8.13
2018-11-25T01:53:35.464Z,8.13
2018-11-25T01:56:05.203Z,7.92
2018-11-25T01:58:35.036Z,8.03
2018-11-25T02:01:04.888Z,8.03
2018-11-25T02:03:34.804Z,8.17
2018-11-25T02:06:04.579Z,8.13
2018-11-25T02:08:34.365Z,7.88
2018-11-25T02:11:04.289Z,7.82
2018-11-25T02:13:34.021Z,7.52
2018-11-25T02:16:03.647Z,7.31
2018-11-25T02:18:33.327Z,7.20
2018-11-25T02:21:03.123Z,7.34
2018-11-25T02:23:32.736Z,7.57
2018-11-25T02:26:02.643Z,7.49
2018-11-25T02:28:32.418Z,7.49
2018-11-25T02:31:02.207Z,7.57
2018-11-25T02:33:32.084Z,7.01
2018-11-25T02:36:01.916Z,7.17
2018-11-25T02:38:31.710Z,7.41
2018-11-25T02:41:01.612Z,7.13
2018-11-25T02:43:31.494Z,7.19
2018-11-25T02:46:01.272Z,7.03
2018-11-25T02:48:31.068Z,7.28
2018-11-25T02:51:00.624Z,7.32
2018-11-25T02:53:30.413Z,7.34
2018-11-25T02:56:00.272Z,7.45
2018-11-25T02:58:29.965Z,7.48
2018-11-25T03:01:00.225Z,7.50
2018-11-25T03:03:29.962Z,7.60
2018-11-25T03:05:59.835Z,7.61
2018-11-25T03:08:29.704Z,7.64
2018-11-25T03:10:59.576Z,7.62
2018-11-25T03:13:29.597Z,7.55
2018-11-25T03:15:59.402Z,7.45
2018-11-25T03:18:29.266Z,7.37
2018-11-25T03:20:59.083Z,6.89
2018-11-25T03:23:28.919Z,6.59
2018-11-25T03:25:58.718Z,6.52
2018-11-25T03:28:28.510Z,6.25
2018-11-25T03:30:58.370Z,5.90
2018-11-25T03:33:28.149Z,5.54
2018-11-25T03:35:57.870Z,5.17
2018-11-25T03:38:27.720Z,4.92
2018-11-25T03:40:57.491Z,5.01
2018-11-25T03:43:27.106Z,5.25
2018-11-25T03:45:56.858Z,5.76
2018-11-25T03:48:26.671Z,6.39
2018-11-25T03:50:56.432Z,6.57
2018-11-25T03:53:26.275Z,6.58
2018-11-25T03:55:56.145Z,6.40
2018-11-25T03:58:26.012Z,6.52
2018-11-25T04:00:55.830Z,6.59
2018-11-25T04:03:25.602Z,6.77
2018-11-25T04:05:55.350Z,6.85
2018-11-25T04:08:25.159Z,6.82
2018-11-25T04:10:55.134Z,6.25
2018-11-25T04:13:24.919Z,6.35
2018-11-25T04:15:55.079Z,6.64
2018-11-25T04:18:24.816Z,6.71
2018-11-25T04:20:54.668Z,6.73
2018-11-25T04:23:24.460Z,6.78
2018-11-25T04:25:54.483Z,6.70
2018-11-25T04:28:24.220Z,6.82
2018-11-25T04:30:53.889Z,6.77
2018-11-25T04:33:23.605Z,6.77
2018-11-25T04:35:53.531Z,6.87
2018-11-25T04:38:23.471Z,6.71
2018-11-25T04:40:53.371Z,6.33
2018-11-25T04:43:23.270Z,6.36
2018-11-25T04:45:53.099Z,6.08
2018-11-25T04:48:23.006Z,5.69
2018-11-25T04:50:52.729Z,5.77
2018-11-25T04:53:22.519Z,5.26
2018-11-25T04:55:52.222Z,5.36
2018-11-25T04:58:22.093Z,5.32
2018-11-25T05:00:51.719Z,4.87
2018-11-25T05:03:21.479Z,4.96
2018-11-25T05:05:51.144Z,5.36
2018-11-25T05:08:20.874Z,5.62
2018-11-25T05:10:50.559Z,5.89
2018-11-25T05:13:20.460Z,5.94
2018-11-25T05:15:50.280Z,5.82
2018-11-25T05:18:20.267Z,5.83
2018-11-25T05:20:49.952Z,5.95
2018-11-25T05:23:19.753Z,5.74
2018-11-25T05:25:49.459Z,6.05
2018-11-25T05:28:19.236Z,6.11
2018-11-25T05:30:49.096Z,5.92
2018-11-25T05:33:18.972Z,6.15
2018-11-25T05:35:48.887Z,6.10
2018-11-25T05:38:18.782Z,6.01
2018-11-25T05:40:48.533Z,6.14
2018-11-25T05:43:18.511Z,6.36
2018-11-25T05:45:48.313Z,6.26
2018-11-25T05:48:18.117Z,6.18
2018-11-25T05:50:47.851Z,6.01
2018-11-25T05:53:17.656Z,5.63
2018-11-25T05:55:47.545Z,5.34
2018-11-25T05:58:17.272Z,5.03
2018-11-25T06:00:46.996Z,5.18
2018-11-25T06:03:16.776Z,5.38
2018-11-25T06:05:46.523Z,5.34
2018-11-25T06:08:16.347Z,5.39
2018-11-25T06:10:46.197Z,5.68
2018-11-25T06:13:15.792Z,5.98
2018-11-25T06:15:45.630Z,5.70
2018-11-25T06:18:15.345Z,5.68
2018-11-25T06:20:45.460Z,5.82
2018-11-25T06:23:15.192Z,5.83
2018-11-25T06:25:45.043Z,6.05
2018-11-25T06:28:14.878Z,5.53
2018-11-25T06:30:44.609Z,5.60
2018-11-25T06:33:14.370Z,5.83
2018-11-25T06:35:44.254Z,5.98
2018-11-25T06:38:13.952Z,6.34
2018-11-25T06:40:43.812Z,6.82
2018-11-25T06:43:13.631Z,7.05
2018-11-25T06:45:43.343Z,7.25
2018-11-25T06:48:13.119Z,6.78
2018-11-25T06:50:42.928Z,6.88
2018-11-25T06:53:12.780Z,6.90
2018-11-25T06:55:42.625Z,6.62
2018-11-25T06:58:12.513Z,6.91
2018-11-25T07:00:42.316Z,7.07
2018-11-25T07:03:12.179Z,7.51
2018-11-25T07:05:42.092Z,7.52
2018-11-25T07:08:11.860Z,7.83
2018-11-25T07:10:41.705Z,7.72
2018-11-25T07:13:11.469Z,7.92
2018-11-25T07:15:41.178Z,7.93
2018-11-25T07:18:10.945Z,8.06
2018-11-25T07:20:40.907Z,8.14
2018-11-25T07:23:11.086Z,8.11
2018-11-25T07:25:40.954Z,8.16
2018-11-25T07:28:18.499Z,8.13
2018-11-25T07:30:40.686Z,8.06
2018-11-25T07:33:10.459Z,7.69
2018-11-25T07:35:40.303Z,7.51
2018-11-25T07:38:10.069Z,6.95
2018-11-25T07:40:39.869Z,6.83
2018-11-25T07:43:09.662Z,6.88
2018-11-25T07:45:39.410Z,7.18
2018-11-25T07:48:09.251Z,7.67
2018-11-25T07:50:39.071Z,7.85
2018-11-25T07:53:08.852Z,7.34
2018-11-25T07:55:38.762Z,6.76
2018-11-25T07:58:08.610Z,7.06
2018-11-25T08:00:38.461Z,7.33
2018-11-25T08:03:08.287Z,7.39
2018-11-25T08:05:38.100Z,7.46
2018-11-25T08:08:07.862Z,7.66
2018-11-25T08:10:37.385Z,7.37
2018-11-25T08:13:07.389Z,7.60
2018-11-25T08:15:37.216Z,8.06
2018-11-25T08:18:07.430Z,8.70
2018-11-25T08:20:37.286Z,8.43
2018-11-25T08:23:06.885Z,8.87
2018-11-25T08:25:36.812Z,9.08
2018-11-25T08:28:06.684Z,9.26
2018-11-25T08:30:36.455Z,9.47
2018-11-25T08:33:06.869Z,9.29
2018-11-25T08:35:36.648Z,9.29
2018-11-25T08:38:06.608Z,9.75
2018-11-25T08:40:36.579Z,9.99
2018-11-25T08:43:06.171Z,10.24
2018-11-25T08:45:36.024Z,10.28
2018-11-25T08:48:06.003Z,10.47
2018-11-25T08:50:35.783Z,10.33
2018-11-25T08:53:05.580Z,10.51
2018-11-25T08:55:35.407Z,10.42
2018-11-25T08:58:05.184Z,11.02
2018-11-25T09:00:35.066Z,11.26
2018-11-25T09:03:04.980Z,10.94
2018-11-25T09:05:34.979Z,10.92
2018-11-25T09:08:04.725Z,11.30
2018-11-25T09:10:34.499Z,11.25
2018-11-25T09:13:04.359Z,11.59
2018-11-25T09:15:34.272Z,12.01
2018-11-25T09:18:03.968Z,12.44
2018-11-25T09:20:33.619Z,13.47
2018-11-25T09:23:03.496Z,13.28
2018-11-25T09:25:33.934Z,15.27
2018-11-25T09:28:04.898Z,15.69
2018-11-25T09:30:35.190Z,16.37
2018-11-25T09:33:05.096Z,17.60
2018-11-25T09:35:34.888Z,17.75
2018-11-25T09:38:06.000Z,18.62
2018-11-25T09:40:35.771Z,18.52
2018-11-25T09:43:05.627Z,18.84
2018-11-25T09:45:35.551Z,18.47
2018-11-25T09:48:05.993Z,18.52
2018-11-25T09:50:35.731Z,18.75
2018-11-25T09:53:05.789Z,18.87
2018-11-25T09:55:35.540Z,18.99
2018-11-25T09:58:05.346Z,19.18
2018-11-25T10:00:37.121Z,19.27
2018-11-25T10:03:08.109Z,19.46
2018-11-25T10:05:37.962Z,19.85
2018-11-25T10:08:09.591Z,19.16
2018-11-25T10:10:39.443Z,20.11
2018-11-25T10:13:09.336Z,20.28
2018-11-25T10:15:39.060Z,19.93
2018-11-25T10:18:09.261Z,18.71
2018-11-25T10:20:39.098Z,17.76
2018-11-25T10:23:08.938Z,17.56
2018-11-25T10:25:38.733Z,18.79
2018-11-25T10:28:08.909Z,19.51
2018-11-25T10:30:38.712Z,20.20
2018-11-25T10:33:09.975Z,20.73
2018-11-25T10:35:39.861Z,20.49
2018-11-25T10:38:10.685Z,19.69
2018-11-25T10:40:40.536Z,19.44
2018-11-25T10:43:10.379Z,19.56
2018-11-25T10:45:40.243Z,19.44
2018-11-25T10:48:10.881Z,20.86
2018-11-25T10:50:40.803Z,21.92
2018-11-25T10:53:10.613Z,22.09
2018-11-25T10:55:40.452Z,21.00
2018-11-25T10:58:11.025Z,20.26
2018-11-25T11:00:45.703Z,19.23
2018-11-25T11:03:20.618Z,19.30
2018-11-25T11:05:55.394Z,18.64
2018-11-25T11:08:26.223Z,18.62
2018-11-25T11:10:56.175Z,19.19
2018-11-25T11:13:26.026Z,20.65
2018-11-25T11:15:55.845Z,20.81
2018-11-25T11:18:25.692Z,19.77
2018-11-25T11:20:55.473Z,19.15
2018-11-25T11:23:25.339Z,19.54
2018-11-25T11:25:55.307Z,19.90
2018-11-25T11:28:25.272Z,20.22
2018-11-25T11:30:55.141Z,19.64
2018-11-25T11:33:24.792Z,20.20
2018-11-25T11:35:54.667Z,20.58
2018-11-25T11:38:24.407Z,18.49
2018-11-25T11:40:54.407Z,17.45
2018-11-25T11:43:24.276Z,17.36
2018-11-25T11:45:54.336Z,15.91
2018-11-25T11:48:24.236Z,16.34
2018-11-25T11:50:54.091Z,16.73
2018-11-25T11:53:23.971Z,16.46
2018-11-25T11:55:53.823Z,16.35
2018-11-25T11:58:23.594Z,17.05
2018-11-25T12:00:53.401Z,17.80
2018-11-25T12:03:26.464Z,17.83
2018-11-25T12:05:53.322Z,18.62
2018-11-25T12:08:23.080Z,19.66
2018-11-25T12:10:52.824Z,18.78
2018-11-25T12:13:22.549Z,18.54
2018-11-25T12:15:52.270Z,18.64
2018-11-25T12:18:22.111Z,18.76
2018-11-25T12:20:51.930Z,18.52
2018-11-25T12:23:21.723Z,17.75
2018-11-25T12:25:51.498Z,17.50
2018-11-25T12:28:21.252Z,18.42
2018-11-25T12:30:51.375Z,19.03
2018-11-25T12:33:21.241Z,19.63
2018-11-25T12:35:50.964Z,19.05
2018-11-25T12:38:20.693Z,18.54
2018-11-25T12:40:50.574Z,18.34
2018-11-25T12:43:20.484Z,18.32
2018-11-25T12:45:50.340Z,17.86
2018-11-25T12:48:20.232Z,18.03
2018-11-25T12:50:50.109Z,17.87
2018-11-25T12:53:19.947Z,17.83
2018-11-25T12:55:49.739Z,17.78
2018-11-25T12:58:19.379Z,17.78
2018-11-25T13:00:50.662Z,17.48
2018-11-25T13:03:20.454Z,16.75
2018-11-25T13:05:50.279Z,16.91
2018-11-25T13:08:20.147Z,16.93
2018-11-25T13:10:50.100Z,16.85
2018-11-25T13:13:20.004Z,17.15
2018-11-25T13:15:49.783Z,17.43
2018-11-25T13:18:19.649Z,17.45
2018-11-25T13:20:49.415Z,17.07
2018-11-25T13:23:20.479Z,17.50
2018-11-25T13:25:50.129Z,17.76
2018-11-25T13:28:20.007Z,17.75
2018-11-25T13:30:49.877Z,17.89
2018-11-25T13:33:20.560Z,17.87
2018-11-25T13:35:50.361Z,17.17
2018-11-25T13:38:21.167Z,17.15
2018-11-25T13:40:51.469Z,16.98
2018-11-25T13:43:21.276Z,17.08
2018-11-25T13:45:51.138Z,16.46
2018-11-25T13:48:21.449Z,16.86
2018-11-25T13:50:51.165Z,16.64
2018-11-25T13:53:21.036Z,16.47
2018-11-25T13:55:50.908Z,16.00
2018-11-25T13:58:20.778Z,15.84
2018-11-25T14:00:52.512Z,15.52
2018-11-25T14:03:40.544Z,15.54
2018-11-25T14:06:13.142Z,15.67
2018-11-25T14:08:43.776Z,15.65
2018-11-25T14:11:15.036Z,15.53
2018-11-25T14:13:44.920Z,15.46
2018-11-25T14:16:17.539Z,15.43
2018-11-25T14:18:48.521Z,15.33
2018-11-25T14:21:18.290Z,15.36
2018-11-25T14:23:48.121Z,15.32
2018-11-25T14:26:23.423Z,15.23
2018-11-25T14:28:54.187Z,15.18
2018-11-25T14:31:23.960Z,14.98
2018-11-25T14:33:53.836Z,14.82
2018-11-25T14:36:23.614Z,14.95
2018-11-25T14:38:54.565Z,14.92
2018-11-25T14:41:24.433Z,14.84
2018-11-25T14:43:54.312Z,14.74
2018-11-25T14:46:24.106Z,14.61
2018-11-25T14:48:53.984Z,14.48
2018-11-25T14:51:23.670Z,14.60
2018-11-25T14:53:53.516Z,14.53
2018-11-25T14:56:23.252Z,14.40
2018-11-25T14:58:53.009Z,14.38
2018-11-25T15:01:22.868Z,14.20
2018-11-25T15:03:54.450Z,14.21
2018-11-25T15:06:29.247Z,14.17
2018-11-25T15:08:54.415Z,14.13
2018-11-25T15:11:24.207Z,14.04
2018-11-25T15:13:54.063Z,14.00
2018-11-25T15:16:23.976Z,13.91
2018-11-25T15:18:53.838Z,13.91
2018-11-25T15:21:23.676Z,13.89
2018-11-25T15:23:53.754Z,13.86
2018-11-25T15:26:23.585Z,13.73
2018-11-25T15:28:53.431Z,13.73
2018-11-25T15:31:23.305Z,13.38
2018-11-25T15:33:53.107Z,13.08
2018-11-25T15:36:23.007Z,13.40
2018-11-25T15:38:52.813Z,13.52
2018-11-25T15:41:22.655Z,13.57
2018-11-25T15:43:52.512Z,13.35
2018-11-25T15:46:22.308Z,13.01
2018-11-25T15:48:52.010Z,13.19
2018-11-25T15:51:21.923Z,13.32
2018-11-25T15:53:51.824Z,13.42
2018-11-25T15:56:21.637Z,13.22
2018-11-25T15:58:51.542Z,12.98
2018-11-25T16:01:21.372Z,12.88
2018-11-25T16:03:51.186Z,13.16
2018-11-25T16:06:28.653Z,13.14
2018-11-25T16:08:59.008Z,13.00
2018-11-25T16:11:28.856Z,12.39
2018-11-25T16:13:58.531Z,12.46
2018-11-25T16:16:28.343Z,12.75
2018-11-25T16:18:58.418Z,12.87
2018-11-25T16:21:28.137Z,12.90
2018-11-25T16:23:57.976Z,12.93
2018-11-25T16:26:32.915Z,12.96
2018-11-25T16:29:13.783Z,12.95
2018-11-25T16:31:43.567Z,12.95
2018-11-25T16:34:13.293Z,13.00
2018-11-25T16:36:43.171Z,13.03
2018-11-25T16:39:13.127Z,13.05
2018-11-25T16:41:42.951Z,13.06
2018-11-25T16:44:12.820Z,13.06
2018-11-25T16:46:42.512Z,12.74
2018-11-25T16:49:12.272Z,12.48
2018-11-25T16:51:42.188Z,12.34
2018-11-25T16:54:11.976Z,12.25
2018-11-25T16:56:41.798Z,12.47
2018-11-25T16:59:11.660Z,12.61
2018-11-25T17:01:41.443Z,12.70
2018-11-25T17:04:11.299Z,12.75
2018-11-25T17:06:42.433Z,12.79
2018-11-25T17:09:13.647Z,12.82
2018-11-25T17:11:43.441Z,12.80
2018-11-25T17:14:13.274Z,12.80
2018-11-25T17:16:43.037Z,12.89
2018-11-25T17:19:13.644Z,12.82
2018-11-25T17:21:43.374Z,12.81
2018-11-25T17:24:13.328Z,12.75
2018-11-25T17:26:43.115Z,12.77
2018-11-25T17:29:13.358Z,12.67
2018-11-25T17:31:43.182Z,12.42
2018-11-25T17:34:12.899Z,12.51
2018-11-25T17:36:42.572Z,12.73
2018-11-25T17:39:12.542Z,12.71
2018-11-25T17:41:42.496Z,12.51
2018-11-25T17:44:12.216Z,12.66
2018-11-25T17:46:42.115Z,12.67
2018-11-25T17:49:11.922Z,12.60
2018-11-25T17:51:41.789Z,12.42
2018-11-25T17:54:11.694Z,12.57
2018-11-25T17:56:41.609Z,12.63
2018-11-25T17:59:11.427Z,12.75
2018-11-25T18:01:41.267Z,12.68
2018-11-25T18:04:11.167Z,12.74
2018-11-25T18:06:41.075Z,12.75
2018-11-25T18:09:12.306Z,12.83
2018-11-25T18:11:42.157Z,12.86
2018-11-25T18:14:12.225Z,12.83
2018-11-25T18:16:41.895Z,12.82
2018-11-25T18:19:22.724Z,12.64
2018-11-25T18:22:25.894Z,12.70
2018-11-25T18:24:55.637Z,12.74
2018-11-25T18:27:25.452Z,12.60
2018-11-25T18:29:55.360Z,12.60
2018-11-25T18:32:25.192Z,12.65
2018-11-25T18:34:56.293Z,12.65
2018-11-25T18:37:25.123Z,12.67
2018-11-25T18:39:55.147Z,12.67
2018-11-25T18:42:24.960Z,12.67
2018-11-25T18:44:54.755Z,12.70
2018-11-25T18:47:24.608Z,12.30
2018-11-25T18:49:54.440Z,12.32
2018-11-25T18:52:24.380Z,12.02
2018-11-25T18:54:52.466Z,12.43
2018-11-25T18:57:22.190Z,12.43
2018-11-25T18:59:52.065Z,12.16
2018-11-25T19:02:24.905Z,12.15
2018-11-25T19:04:54.614Z,12.25
2018-11-25T19:07:25.119Z,12.31
2018-11-25T19:09:54.954Z,11.99
2018-11-25T19:12:24.680Z,11.60
2018-11-25T19:14:54.600Z,11.68
2018-11-25T19:17:24.435Z,11.74
2018-11-25T19:19:54.287Z,11.31
2018-11-25T19:22:24.073Z,11.46
2018-11-25T19:24:54.008Z,11.53
2018-11-25T19:27:23.929Z,11.95
2018-11-25T19:29:53.766Z,12.04
2018-11-25T19:32:23.491Z,11.71
2018-11-25T19:34:53.430Z,11.78
2018-11-25T19:37:23.313Z,11.74
2018-11-25T19:39:53.221Z,11.46
2018-11-25T19:42:23.326Z,10.69
2018-11-25T19:44:53.226Z,11.25
2018-11-25T19:47:23.009Z,11.41
2018-11-25T19:49:53.170Z,11.48
2018-11-25T19:52:22.809Z,11.64
2018-11-25T19:54:52.691Z,11.35
2018-11-25T19:57:22.446Z,11.32
2018-11-25T19:59:52.208Z,11.68
2018-11-25T20:02:22.120Z,12.02
2018-11-25T20:04:51.952Z,12.18
2018-11-25T20:07:21.856Z,12.27
2018-11-25T20:09:51.788Z,12.37
2018-11-25T20:12:41.250Z,12.42
2018-11-25T20:15:15.453Z,12.37
2018-11-25T20:17:53.698Z,12.39
2018-11-25T20:20:19.363Z,12.30
2018-11-25T20:22:49.827Z,12.43
2018-11-25T20:25:20.020Z,12.32
2018-11-25T20:27:57.211Z,12.20
2018-11-25T20:30:28.332Z,12.36
2018-11-25T20:33:03.211Z,12.44
2018-11-25T20:35:32.990Z,12.23
2018-11-25T20:38:07.860Z,12.28
2018-11-25T20:40:37.599Z,12.34
2018-11-25T20:43:08.244Z,12.20
2018-11-25T20:45:42.944Z,12.27
2018-11-25T20:48:13.417Z,11.63
2018-11-25T20:50:43.331Z,11.68
2018-11-25T20:53:18.235Z,11.69
2018-11-25T20:55:48.160Z,11.43
2018-11-25T20:58:18.023Z,11.37
2018-11-25T21:00:47.949Z,11.42
2018-11-25T21:03:17.812Z,11.75
2018-11-25T21:05:47.585Z,11.94
2018-11-25T21:08:17.436Z,11.95
2018-11-25T21:10:47.221Z,12.06
2018-11-25T21:13:17.048Z,12.28
2018-11-25T21:15:46.952Z,11.82
2018-11-25T21:18:16.741Z,11.81
2018-11-25T21:20:51.014Z,11.83
2018-11-25T21:23:17.392Z,12.02
2018-11-25T21:25:46.307Z,12.10
2018-11-25T21:28:16.264Z,11.91
2018-11-25T21:30:46.219Z,11.54
2018-11-25T21:33:15.939Z,11.31
2018-11-25T21:35:45.710Z,11.31
2018-11-25T21:38:15.575Z,11.26
2018-11-25T21:40:45.344Z,11.24
2018-11-25T21:43:15.291Z,11.51
2018-11-25T21:45:45.069Z,11.78
2018-11-25T21:48:14.897Z,11.85
2018-11-25T21:50:44.639Z,12.07
2018-11-25T21:53:14.540Z,11.52
2018-11-25T21:55:44.398Z,11.24
2018-11-25T21:58:14.030Z,11.34
2018-11-25T22:00:43.984Z,11.67
2018-11-25T22:03:13.910Z,12.00
2018-11-25T22:05:43.745Z,11.80
2018-11-25T22:08:13.653Z,11.72
2018-11-25T22:10:43.492Z,11.78
2018-11-25T22:13:13.235Z,11.92
2018-11-25T22:15:43.063Z,12.16
2018-11-25T22:18:12.922Z,12.27
2018-11-25T22:20:42.685Z,12.22
2018-11-25T22:23:12.525Z,12.09
2018-11-25T22:25:42.305Z,12.26
2018-11-25T22:28:12.070Z,12.42
2018-11-25T22:30:41.916Z,12.34
2018-11-25T22:33:11.687Z,11.93
2018-11-25T22:35:41.747Z,12.17
2018-11-25T22:38:11.476Z,12.28
2018-11-25T22:40:41.211Z,12.35
2018-11-25T22:43:10.966Z,11.95
2018-11-25T22:45:41.009Z,11.88
2018-11-25T22:48:10.622Z,11.72
2018-11-25T22:50:40.506Z,11.45
2018-11-25T22:53:10.307Z,11.16
2018-11-25T22:55:40.004Z,11.05
2018-11-25T22:58:09.909Z,11.14
2018-11-25T23:00:39.946Z,11.29
2018-11-25T23:03:09.811Z,11.60
2018-11-25T23:05:50.239Z,11.76
2018-11-25T23:08:20.568Z,11.58
2018-11-25T23:10:50.398Z,11.75
2018-11-25T23:13:20.143Z,11.79
2018-11-25T23:15:49.975Z,11.97
2018-11-25T23:18:19.815Z,11.86
2018-11-25T23:20:49.686Z,11.64
2018-11-25T23:23:19.520Z,11.55
2018-11-25T23:25:49.295Z,11.17
2018-11-25T23:28:19.133Z,11.19
2018-11-25T23:30:49.057Z,10.91
2018-11-25T23:33:18.830Z,11.06
2018-11-25T23:35:48.744Z,11.00
2018-11-25T23:38:18.522Z,11.08
2018-11-25T23:40:48.220Z,11.26
2018-11-25T23:43:18.016Z,11.13
2018-11-25T23:45:47.857Z,10.93
2018-11-25T23:48:17.616Z,10.98
2018-11-25T23:50:47.442Z,11.16
2018-11-25T23:53:17.238Z,11.51
2018-11-25T23:55:47.072Z,11.63
2018-11-25T23:58:16.968Z,11.66
